createdAt,value
2022-08-14T00:01:36.848Z,99.90
2022-08-14T00:04:34.072Z,99.90
2022-08-14T00:06:50.864Z,99.90
2022-08-14T00:09:17.756Z,99.90
2022-08-14T00:11:47.052Z,99.90
2022-08-14T00:14:17.411Z,99.90
2022-08-14T00:16:45.154Z,99.90
2022-08-14T00:19:18.749Z,99.90
2022-08-14T00:21:47.810Z,99.90
2022-08-14T00:24:22.945Z,99.90
2022-08-14T00:27:01.778Z,99.90
2022-08-14T00:29:39.874Z,99.90
2022-08-14T00:32:52.981Z,99.90
2022-08-14T00:34:57.062Z,99.90
2022-08-14T00:37:24.468Z,99.90
2022-08-14T00:39:51.416Z,99.90
2022-08-14T00:43:02.950Z,99.90
2022-08-14T00:45:13.832Z,99.90
2022-08-14T00:47:44.994Z,99.90
2022-08-14T00:50:18.313Z,99.90
2022-08-14T00:52:47.453Z,99.90
2022-08-14T00:55:18.646Z,99.90
2022-08-14T00:58:06.535Z,99.90
2022-08-14T01:00:47.211Z,99.90
2022-08-14T01:03:20.095Z,99.90
2022-08-14T01:05:52.099Z,99.90
2022-08-14T01:08:51.856Z,99.90
2022-08-14T01:11:09.787Z,99.90
2022-08-14T01:13:42.658Z,99.90
2022-08-14T01:16:19.403Z,99.90
2022-08-14T01:19:13.549Z,99.90
2022-08-14T01:21:46.850Z,99.90
2022-08-14T01:24:24.662Z,99.90
2022-08-14T01:27:00.235Z,99.90
2022-08-14T01:29:59.367Z,99.90
2022-08-14T01:32:23.106Z,99.90
2022-08-14T01:35:18.334Z,99.90
2022-08-14T01:37:54.871Z,99.90
2022-08-14T01:40:37.196Z,99.90
2022-08-14T01:43:14.678Z,99.90
2022-08-14T01:45:42.718Z,99.90
2022-08-14T01:48:20.827Z,99.90
2022-08-14T01:50:47.999Z,99.90
2022-08-14T01:53:15.483Z,99.90
2022-08-14T01:55:42.802Z,99.90
2022-08-14T01:58:19.457Z,99.90
2022-08-14T02:00:55.441Z,99.90
2022-08-14T02:03:29.938Z,99.90
2022-08-14T02:06:03.832Z,99.90
2022-08-14T02:08:52.902Z,99.90
2022-08-14T02:11:24.205Z,99.90
2022-08-14T02:14:00.075Z,99.90
2022-08-14T02:16:39.350Z,99.90
2022-08-14T02:19:14.262Z,99.90
2022-08-14T02:21:48.755Z,99.90
2022-08-14T02:24:38.703Z,99.90
2022-08-14T02:28:24.819Z,99.90
2022-08-14T02:29:59.150Z,99.90
2022-08-14T02:32:36.045Z,99.90
2022-08-14T02:35:16.384Z,99.90
2022-08-14T02:37:49.708Z,99.90
2022-08-14T02:40:18.824Z,99.90
2022-08-14T02:42:55.365Z,99.90
2022-08-14T02:45:38.842Z,99.90
2022-08-14T02:49:04.363Z,99.90
2022-08-14T02:51:02.642Z,99.90
2022-08-14T02:53:31.127Z,99.90
2022-08-14T02:56:03.116Z,99.90
2022-08-14T02:58:41.844Z,99.90
2022-08-14T03:01:10.961Z,99.90
2022-08-14T03:03:38.776Z,99.90
2022-08-14T03:06:07.068Z,99.90
2022-08-14T03:08:37.945Z,99.90
2022-08-14T03:11:09.404Z,99.90
2022-08-14T03:13:41.464Z,99.90
2022-08-14T03:16:20.330Z,99.90
2022-08-14T03:18:58.317Z,99.90
2022-08-14T03:21:26.869Z,99.90
2022-08-14T03:24:21.439Z,99.90
2022-08-14T03:26:49.979Z,99.90
2022-08-14T03:29:24.679Z,99.90
2022-08-14T03:31:54.611Z,99.90
2022-08-14T03:34:24.779Z,99.90
2022-08-14T03:37:51.401Z,99.90
2022-08-14T03:40:00.499Z,99.90
2022-08-14T03:42:36.123Z,99.90
2022-08-14T03:45:26.720Z,99.90
2022-08-14T03:47:58.932Z,99.90
2022-08-14T03:50:31.272Z,99.90
2022-08-14T03:53:03.040Z,99.90
2022-08-14T03:55:30.977Z,99.90
2022-08-14T03:58:00.372Z,99.90
2022-08-14T04:00:43.767Z,99.90
2022-08-14T04:03:18.004Z,99.90
2022-08-14T04:05:48.923Z,99.90
2022-08-14T04:08:23.125Z,99.90
2022-08-14T04:10:57.405Z,99.90
2022-08-14T04:13:25.062Z,99.90
2022-08-14T04:16:02.089Z,99.90
2022-08-14T04:18:33.982Z,99.90
2022-08-14T04:21:01.284Z,99.90
2022-08-14T04:23:29.936Z,99.90
2022-08-14T04:26:08.253Z,99.90
2022-08-14T04:29:07.227Z,99.90
2022-08-14T04:32:58.632Z,99.90
2022-08-14T04:34:20.649Z,99.90
2022-08-14T04:37:09.192Z,99.90
2022-08-14T04:39:56.948Z,99.90
2022-08-14T04:42:47.198Z,99.90
2022-08-14T04:45:20.936Z,99.90
2022-08-14T04:48:06.054Z,99.90
2022-08-14T04:50:44.132Z,99.90
2022-08-14T04:53:19.008Z,99.90
2022-08-14T04:55:51.617Z,99.90
2022-08-14T04:58:32.838Z,99.90
2022-08-14T05:01:03.286Z,99.90
2022-08-14T05:03:33.277Z,99.90
2022-08-14T05:06:03.131Z,99.90
2022-08-14T05:08:50.458Z,99.90
2022-08-14T05:11:19.847Z,99.90
2022-08-14T05:16:34.038Z,99.90
2022-08-14T05:19:18.127Z,99.90
2022-08-14T05:22:00.464Z,99.90
2022-08-14T05:24:34.554Z,99.90
2022-08-14T05:27:03.286Z,99.90
2022-08-14T05:29:31.185Z,99.90
2022-08-14T05:32:01.268Z,99.90
2022-08-14T05:34:31.462Z,99.90
2022-08-14T05:36:58.854Z,99.90
2022-08-14T05:39:30.095Z,99.90
2022-08-14T05:41:58.271Z,99.90
2022-08-14T05:44:29.546Z,99.90
2022-08-14T05:46:57.367Z,99.90
2022-08-14T05:49:25.970Z,99.90
2022-08-14T05:52:01.837Z,99.90
2022-08-14T05:54:35.495Z,99.90
2022-08-14T05:57:04.571Z,99.90
2022-08-14T05:59:39.337Z,99.90
2022-08-14T06:02:11.347Z,99.90
2022-08-14T06:04:39.519Z,99.90
2022-08-14T06:07:06.746Z,99.90
2022-08-14T06:09:35.731Z,99.90
2022-08-14T06:12:11.878Z,99.90
2022-08-14T06:14:39.351Z,99.90
2022-08-14T06:17:06.825Z,99.90
2022-08-14T06:19:33.881Z,99.90
2022-08-14T06:22:01.683Z,99.90
2022-08-14T06:24:30.704Z,99.90
2022-08-14T06:27:04.769Z,99.90
2022-08-14T06:29:34.718Z,99.90
2022-08-14T06:32:36.488Z,99.90
2022-08-14T06:35:03.613Z,99.90
2022-08-14T06:37:51.951Z,99.90
2022-08-14T06:40:26.724Z,99.90
2022-08-14T06:43:03.663Z,99.90
2022-08-14T06:45:36.057Z,99.90
2022-08-14T06:48:06.234Z,99.90
2022-08-14T06:50:39.668Z,99.90
2022-08-14T06:53:07.422Z,99.90
2022-08-14T06:55:34.437Z,99.90
2022-08-14T06:58:04.602Z,99.90
2022-08-14T07:00:32.900Z,99.90
2022-08-14T07:03:19.468Z,99.90
2022-08-14T07:05:55.506Z,99.90
2022-08-14T07:08:31.871Z,99.90
2022-08-14T07:11:01.563Z,99.90
2022-08-14T07:13:30.592Z,99.90
2022-08-14T07:16:00.490Z,99.90
2022-08-14T07:18:34.805Z,99.90
2022-08-14T07:21:03.063Z,99.90
2022-08-14T07:23:31.059Z,99.90
2022-08-14T07:25:59.859Z,99.90
2022-08-14T07:28:28.302Z,99.90
2022-08-14T07:31:05.121Z,99.90
2022-08-14T07:33:41.987Z,99.90
2022-08-14T07:36:27.545Z,99.90
2022-08-14T07:39:00.350Z,99.90
2022-08-14T07:41:33.925Z,99.90
2022-08-14T07:44:32.659Z,99.90
2022-08-14T07:46:50.617Z,99.90
2022-08-14T07:49:18.486Z,99.90
2022-08-14T07:51:49.536Z,99.90
2022-08-14T07:54:23.286Z,99.90
2022-08-14T07:57:06.606Z,99.90
2022-08-14T07:59:43.622Z,99.90
2022-08-14T08:02:19.458Z,99.90
2022-08-14T08:04:58.938Z,99.90
2022-08-14T08:07:29.939Z,99.90
2022-08-14T08:10:00.872Z,99.90
2022-08-14T08:12:32.447Z,99.90
2022-08-14T08:15:02.852Z,99.90
2022-08-14T08:17:38.574Z,99.90
2022-08-14T08:20:19.923Z,99.90
2022-08-14T08:22:49.998Z,99.90
2022-08-14T08:25:23.790Z,99.90
2022-08-14T08:27:59.625Z,99.90
2022-08-14T08:30:27.605Z,99.90
2022-08-14T08:32:59.188Z,99.90
2022-08-14T08:35:46.672Z,99.90
2022-08-14T08:39:17.659Z,99.90
2022-08-14T08:41:04.859Z,99.90
2022-08-14T08:43:37.026Z,99.90
2022-08-14T08:46:21.676Z,99.90
2022-08-14T08:51:34.398Z,99.90
2022-08-14T08:54:19.744Z,99.90
2022-08-14T08:56:52.722Z,99.90
2022-08-14T08:59:27.334Z,99.90
2022-08-14T09:02:04.167Z,99.90
2022-08-14T09:04:45.201Z,99.90
2022-08-14T09:07:25.508Z,99.90
2022-08-14T09:09:59.764Z,99.90
2022-08-14T09:12:32.631Z,99.90
2022-08-14T09:15:12.119Z,99.90
2022-08-14T09:17:44.228Z,99.90
2022-08-14T09:20:14.113Z,99.90
2022-08-14T09:22:55.110Z,99.90
2022-08-14T09:25:59.760Z,99.90
2022-08-14T09:28:10.258Z,99.90
2022-08-14T09:30:41.323Z,99.90
2022-08-14T09:33:32.139Z,99.90
2022-08-14T09:36:36.240Z,99.90
2022-08-14T09:39:23.717Z,99.90
2022-08-14T09:42:34.064Z,99.90
2022-08-14T09:45:13.864Z,99.90
2022-08-14T09:47:54.176Z,99.90
2022-08-14T09:50:28.688Z,99.90
2022-08-14T09:53:17.905Z,99.90
2022-08-14T09:55:58.440Z,99.90
2022-08-14T09:58:43.848Z,99.90
2022-08-14T10:01:19.259Z,99.90
2022-08-14T10:04:33.129Z,99.90
2022-08-14T10:07:02.832Z,99.90
2022-08-14T10:09:33.562Z,99.90
2022-08-14T10:12:04.341Z,99.90
2022-08-14T10:14:36.644Z,99.90
2022-08-14T10:17:06.878Z,99.90
2022-08-14T10:19:36.444Z,99.90
2022-08-14T10:23:12.223Z,99.90
2022-08-14T10:24:59.890Z,99.90
2022-08-14T10:27:28.917Z,99.90
2022-08-14T10:30:00.998Z,99.90
2022-08-14T10:32:51.196Z,99.70
2022-08-14T10:35:16.756Z,99.40
2022-08-14T10:37:50.180Z,99.00
2022-08-14T10:40:43.636Z,98.50
2022-08-14T10:43:31.574Z,98.50
2022-08-14T10:46:21.927Z,97.90
2022-08-14T10:49:06.402Z,98.70
2022-08-14T10:51:36.121Z,97.20
2022-08-14T10:54:17.067Z,96.30
2022-08-14T10:56:57.275Z,95.70
2022-08-14T10:59:30.831Z,96.50
2022-08-14T11:02:01.726Z,95.90
2022-08-14T11:04:30.531Z,94.60
2022-08-14T11:06:57.995Z,94.10
2022-08-14T11:09:26.454Z,93.10
2022-08-14T11:12:34.159Z,92.90
2022-08-14T11:15:02.660Z,92.60
2022-08-14T11:17:34.000Z,92.00
2022-08-14T11:20:03.483Z,92.70
2022-08-14T11:22:55.437Z,92.10
2022-08-14T11:25:23.558Z,91.10
2022-08-14T11:27:52.992Z,90.80
2022-08-14T11:30:50.242Z,87.70
2022-08-14T11:33:23.056Z,90.00
2022-08-14T11:35:50.095Z,89.30
2022-08-14T11:38:20.063Z,87.60
2022-08-14T11:40:47.989Z,86.10
2022-08-14T11:43:15.369Z,86.00
2022-08-14T11:45:48.755Z,85.70
2022-08-14T11:49:04.361Z,87.60
2022-08-14T11:51:13.671Z,86.90
2022-08-14T11:53:42.158Z,86.20
2022-08-14T11:56:10.972Z,85.10
2022-08-14T11:58:40.119Z,84.90
2022-08-14T12:01:09.566Z,85.40
2022-08-14T12:03:52.125Z,83.40
2022-08-14T12:06:28.721Z,83.10
2022-08-14T12:09:08.547Z,82.00
2022-08-14T12:11:47.219Z,80.40
2022-08-14T12:14:30.798Z,78.70
2022-08-14T12:17:12.749Z,80.40
2022-08-14T12:19:51.238Z,81.20
2022-08-14T12:22:42.339Z,79.80
2022-08-14T12:25:21.289Z,80.30
2022-08-14T12:27:59.353Z,79.60
2022-08-14T12:30:38.110Z,79.40
2022-08-14T12:33:31.086Z,79.50
2022-08-14T12:36:04.570Z,76.70
2022-08-14T12:38:36.536Z,75.70
2022-08-14T12:41:09.297Z,74.40
2022-08-14T12:43:51.897Z,73.30
2022-08-14T12:46:29.160Z,73.10
2022-08-14T12:48:59.500Z,72.80
2022-08-14T12:51:28.594Z,72.00
2022-08-14T12:53:59.191Z,71.00
2022-08-14T12:56:32.931Z,72.60
2022-08-14T12:59:01.718Z,70.60
2022-08-14T13:01:31.460Z,69.80
2022-08-14T13:04:08.386Z,70.30
2022-08-14T13:06:38.422Z,68.60
2022-08-14T13:09:11.073Z,67.70
2022-08-14T13:11:58.899Z,66.30
2022-08-14T13:14:38.811Z,67.40
2022-08-14T13:17:09.039Z,66.00
2022-08-14T13:19:40.751Z,63.00
2022-08-14T13:22:10.188Z,63.00
2022-08-14T13:24:55.355Z,63.10
2022-08-14T13:27:25.732Z,63.10
2022-08-14T13:29:57.416Z,61.80
2022-08-14T13:32:25.464Z,59.40
2022-08-14T13:34:52.738Z,59.90
2022-08-14T13:37:19.826Z,59.50
2022-08-14T13:39:56.970Z,59.60
2022-08-14T13:42:30.655Z,59.90
2022-08-14T13:45:01.203Z,59.20
2022-08-14T13:47:30.416Z,59.90
2022-08-14T13:50:04.866Z,58.20
2022-08-14T13:52:52.942Z,59.20
2022-08-14T13:55:29.418Z,60.00
2022-08-14T13:58:04.118Z,60.70
2022-08-14T14:00:35.628Z,60.20
2022-08-14T14:03:08.840Z,60.30
2022-08-14T14:05:52.861Z,58.40
2022-08-14T14:08:46.851Z,58.50
2022-08-14T14:11:10.446Z,58.70
2022-08-14T14:13:42.037Z,59.30
2022-08-14T14:16:15.393Z,58.90
2022-08-14T14:18:52.488Z,58.30
2022-08-14T14:21:21.732Z,58.40
2022-08-14T14:23:49.202Z,58.30
2022-08-14T14:26:23.373Z,58.30
2022-08-14T14:28:56.668Z,58.00
2022-08-14T14:31:30.385Z,57.80
2022-08-14T14:34:07.670Z,58.10
2022-08-14T14:36:50.057Z,57.80
2022-08-14T14:39:23.126Z,56.40
2022-08-14T14:41:56.169Z,55.10
2022-08-14T14:44:25.641Z,54.90
2022-08-14T14:46:54.434Z,55.40
2022-08-14T14:49:31.657Z,55.80
2022-08-14T14:52:15.282Z,55.70
2022-08-14T14:54:50.608Z,56.60
2022-08-14T14:57:19.277Z,56.50
2022-08-14T14:59:46.160Z,57.10
2022-08-14T15:02:47.377Z,56.30
2022-08-14T15:05:20.092Z,54.00
2022-08-14T15:07:49.421Z,54.90
2022-08-14T15:10:27.344Z,55.30
2022-08-14T15:13:03.621Z,55.40
2022-08-14T15:15:32.851Z,56.60
2022-08-14T15:18:01.183Z,57.20
2022-08-14T15:20:30.503Z,57.30
2022-08-14T15:23:12.388Z,57.70
2022-08-14T15:25:41.022Z,57.80
2022-08-14T15:28:12.791Z,57.50
2022-08-14T15:30:44.838Z,57.60
2022-08-14T15:34:00.924Z,54.80
2022-08-14T15:36:29.429Z,55.50
2022-08-14T15:38:58.268Z,54.80
2022-08-14T15:41:25.258Z,54.90
2022-08-14T15:43:53.271Z,54.30
2022-08-14T15:46:41.246Z,54.40
2022-08-14T15:49:10.880Z,53.70
2022-08-14T15:51:42.108Z,53.50
2022-08-14T15:54:11.420Z,53.30
2022-08-14T15:56:42.945Z,52.50
2022-08-14T15:59:13.205Z,51.30
2022-08-14T16:01:54.329Z,51.60
2022-08-14T16:04:23.745Z,52.30
2022-08-14T16:06:54.541Z,52.20
2022-08-14T16:09:21.782Z,52.10
2022-08-14T16:11:50.754Z,51.40
2022-08-14T16:14:21.795Z,51.90
2022-08-14T16:16:59.934Z,52.00
2022-08-14T16:19:31.174Z,52.50
2022-08-14T16:22:58.250Z,52.80
2022-08-14T16:24:57.820Z,52.90
2022-08-14T16:27:37.179Z,52.60
2022-08-14T16:30:20.839Z,52.60
2022-08-14T16:32:55.593Z,51.90
2022-08-14T16:35:42.194Z,51.70
2022-08-14T16:38:29.407Z,52.00
2022-08-14T16:41:23.017Z,52.40
2022-08-14T16:44:02.342Z,52.30
2022-08-14T16:46:34.844Z,52.80
2022-08-14T16:49:05.510Z,52.80
2022-08-14T16:51:36.590Z,53.80
2022-08-14T16:54:33.662Z,53.50
2022-08-14T16:57:28.024Z,53.50
2022-08-14T17:00:00.386Z,54.10
2022-08-14T17:02:39.738Z,55.00
2022-08-14T17:05:20.978Z,54.30
2022-08-14T17:08:31.605Z,54.60
2022-08-14T17:10:55.816Z,55.10
2022-08-14T17:13:47.291Z,55.10
2022-08-14T17:16:25.033Z,55.20
2022-08-14T17:19:01.011Z,55.40
2022-08-14T17:21:31.565Z,55.70
2022-08-14T17:24:57.342Z,56.50
2022-08-14T17:26:55.941Z,56.20
2022-08-14T17:29:29.619Z,56.50
2022-08-14T17:32:02.228Z,56.10
2022-08-14T17:34:49.261Z,55.90
2022-08-14T17:37:34.038Z,55.40
2022-08-14T17:40:22.844Z,55.40
2022-08-14T17:42:58.955Z,55.30
2022-08-14T17:45:41.619Z,55.50
2022-08-14T17:49:10.144Z,55.10
2022-08-14T17:51:24.013Z,55.10
2022-08-14T17:54:03.003Z,55.40
2022-08-14T17:56:33.615Z,55.50
2022-08-14T17:59:05.719Z,55.80
2022-08-14T18:01:37.370Z,56.30
2022-08-14T18:04:24.401Z,56.50
2022-08-14T18:06:57.747Z,57.10
2022-08-14T18:09:57.165Z,57.80
2022-08-14T18:12:36.560Z,58.40
2022-08-14T18:15:17.492Z,58.00
2022-08-14T18:17:52.703Z,58.00
2022-08-14T18:21:42.625Z,58.30
2022-08-14T18:23:12.887Z,58.50
2022-08-14T18:25:51.650Z,58.70
2022-08-14T18:28:49.014Z,59.00
2022-08-14T18:31:20.728Z,59.70
2022-08-14T18:33:56.483Z,60.30
2022-08-14T18:36:54.439Z,60.10
2022-08-14T18:39:29.735Z,60.70
2022-08-14T18:42:23.882Z,60.80
2022-08-14T18:44:51.292Z,61.30
2022-08-14T18:47:21.800Z,61.60
2022-08-14T18:49:57.962Z,62.10
2022-08-14T18:52:34.654Z,62.50
2022-08-14T18:55:20.881Z,62.70
2022-08-14T18:57:58.039Z,63.10
2022-08-14T19:00:51.427Z,64.00
2022-08-14T19:03:18.691Z,65.40
2022-08-14T19:05:49.530Z,64.70
2022-08-14T19:08:22.173Z,65.00
2022-08-14T19:10:59.503Z,65.50
2022-08-14T19:13:48.546Z,65.70
2022-08-14T19:16:22.895Z,66.20
2022-08-14T19:18:53.272Z,66.70
2022-08-14T19:21:32.454Z,68.00
2022-08-14T19:24:29.782Z,67.50
2022-08-14T19:27:12.962Z,67.90
2022-08-14T19:29:40.148Z,68.10
2022-08-14T19:32:36.670Z,68.40
2022-08-14T19:35:16.825Z,68.50
2022-08-14T19:37:47.745Z,68.60
2022-08-14T19:40:38.463Z,68.90
2022-08-14T19:43:09.613Z,69.20
2022-08-14T19:45:38.441Z,69.90
2022-08-14T19:48:14.107Z,70.10
2022-08-14T19:50:44.402Z,70.20
2022-08-14T19:53:17.509Z,70.60
2022-08-14T19:55:58.519Z,70.30
2022-08-14T19:58:54.859Z,70.70
2022-08-14T20:01:37.142Z,71.00
2022-08-14T20:04:46.039Z,71.10
2022-08-14T20:07:58.911Z,71.50
2022-08-14T20:11:06.339Z,71.60
2022-08-14T20:13:25.137Z,72.10
2022-08-14T20:16:02.091Z,72.20
2022-08-14T20:21:18.412Z,72.60
2022-08-14T20:23:47.782Z,73.20
2022-08-14T20:26:31.844Z,73.40
2022-08-14T20:29:04.927Z,73.70
2022-08-14T20:31:37.381Z,73.60
2022-08-14T20:34:19.090Z,73.90
2022-08-14T20:37:17.415Z,74.30
2022-08-14T20:39:54.239Z,74.80
2022-08-14T20:42:43.632Z,75.20
2022-08-14T20:45:18.818Z,75.70
2022-08-14T20:47:50.688Z,76.20
2022-08-14T20:50:28.907Z,76.80
2022-08-14T20:53:05.849Z,77.20
2022-08-14T20:55:41.401Z,77.80
2022-08-14T20:58:44.172Z,79.00
2022-08-14T21:01:13.812Z,78.40
2022-08-14T21:03:58.029Z,79.00
2022-08-14T21:07:22.864Z,79.00
2022-08-14T21:10:05.284Z,79.30
2022-08-14T21:12:32.675Z,80.00
2022-08-14T21:15:01.069Z,80.90
2022-08-14T21:17:29.559Z,81.10
2022-08-14T21:19:56.723Z,81.60
2022-08-14T21:22:24.929Z,81.90
2022-08-14T21:25:01.472Z,82.20
2022-08-14T21:27:37.470Z,83.10
2022-08-14T21:30:08.459Z,82.50
2022-08-14T21:32:50.511Z,82.90
2022-08-14T21:35:26.022Z,83.10
2022-08-14T21:37:53.709Z,83.60
2022-08-14T21:40:40.000Z,83.70
2022-08-14T21:43:18.022Z,84.10
2022-08-14T21:45:53.069Z,84.50
2022-08-14T21:48:25.196Z,84.40
2022-08-14T21:51:00.261Z,85.00
2022-08-14T21:53:58.596Z,85.30
2022-08-14T21:56:37.344Z,85.70
2022-08-14T21:59:10.607Z,85.70
2022-08-14T22:02:00.903Z,86.70
2022-08-14T22:04:33.347Z,87.20
2022-08-14T22:07:07.135Z,87.40
2022-08-14T22:09:36.680Z,87.70
2022-08-14T22:12:07.258Z,88.50
2022-08-14T22:14:43.240Z,88.40
2022-08-14T22:17:16.373Z,88.60
2022-08-14T22:19:54.324Z,89.40
2022-08-14T22:22:26.638Z,90.00
2022-08-14T22:24:59.948Z,90.30
2022-08-14T22:27:29.725Z,90.60
2022-08-14T22:30:00.039Z,90.60
2022-08-14T22:32:34.998Z,90.80
2022-08-14T22:35:03.866Z,91.50
2022-08-14T22:37:36.737Z,90.90
2022-08-14T22:40:17.163Z,91.10
2022-08-14T22:43:00.415Z,91.30
2022-08-14T22:45:36.424Z,92.00
2022-08-14T22:48:05.221Z,91.90
2022-08-14T22:50:53.488Z,92.10
2022-08-14T22:53:21.797Z,92.30
2022-08-14T22:55:52.109Z,92.80
2022-08-14T22:58:31.425Z,93.00
2022-08-14T23:01:05.551Z,93.40
2022-08-14T23:03:38.732Z,93.50
2022-08-14T23:07:04.197Z,93.70
2022-08-14T23:09:02.127Z,94.10
2022-08-14T23:11:46.806Z,94.40
2022-08-14T23:14:15.378Z,94.40
2022-08-14T23:16:57.468Z,94.90
2022-08-14T23:19:33.644Z,95.80
2022-08-14T23:22:03.398Z,96.10
2022-08-14T23:24:30.698Z,96.80
2022-08-14T23:26:58.004Z,98.10
2022-08-14T23:29:25.016Z,98.50
2022-08-14T23:31:52.462Z,98.20
2022-08-14T23:34:21.784Z,97.70
2022-08-14T23:36:55.344Z,98.20
2022-08-14T23:39:31.492Z,99.60
2022-08-14T23:42:05.912Z,99.70
2022-08-14T23:44:37.526Z,99.90
2022-08-14T23:47:12.118Z,99.90
2022-08-14T23:50:00.475Z,99.90
2022-08-14T23:52:50.707Z,99.90
2022-08-14T23:55:28.911Z,99.90
2022-08-14T23:57:57.714Z,99.90
